sensor_id;sensor_type;location;lat;lon;timestamp;pressure;altitude;pressure_sealevel;temperature;humidity
11415;BME280;5763;42.714;23.244;2023-04-26T00:00:14;93643.16;;;12.14;72.87
11415;BME280;5763;42.714;23.244;2023-04-26T00:02:43;93639.28;;;12.01;73.79
11415;BME280;5763;42.714;23.244;2023-04-26T00:05:10;93636.81;;;12.03;72.47
11415;BME280;5763;42.714;23.244;2023-04-26T00:07:36;93638.28;;;11.98;72.62
11415;BME280;5763;42.714;23.244;2023-04-26T00:10:04;93630.69;;;11.88;72.83
11415;BME280;5763;42.714;23.244;2023-04-26T00:12:30;93622.47;;;11.88;72.92
11415;BME280;5763;42.714;23.244;2023-04-26T00:14:57;93621.94;;;11.84;72.30
11415;BME280;5763;42.714;23.244;2023-04-26T00:17:24;93615.47;;;11.87;71.70
11415;BME280;5763;42.714;23.244;2023-04-26T00:19:52;93612.00;;;11.86;72.10
11415;BME280;5763;42.714;23.244;2023-04-26T00:22:19;93609.47;;;11.83;72.44
11415;BME280;5763;42.714;23.244;2023-04-26T00:24:45;93616.31;;;11.93;71.90
11415;BME280;5763;42.714;23.244;2023-04-26T00:27:12;93615.78;;;11.94;70.79
11415;BME280;5763;42.714;23.244;2023-04-26T00:29:39;93618.72;;;11.85;71.27
11415;BME280;5763;42.714;23.244;2023-04-26T00:32:05;93606.22;;;11.84;71.43
11415;BME280;5763;42.714;23.244;2023-04-26T00:34:32;93600.56;;;11.88;71.38
11415;BME280;5763;42.714;23.244;2023-04-26T00:37:01;93606.78;;;11.88;72.89
11415;BME280;5763;42.714;23.244;2023-04-26T00:39:28;93599.53;;;11.85;73.05
11415;BME280;5763;42.714;23.244;2023-04-26T00:41:54;93602.31;;;11.91;72.86
11415;BME280;5763;42.714;23.244;2023-04-26T00:44:21;93606.41;;;11.75;73.49
11415;BME280;5763;42.714;23.244;2023-04-26T00:46:48;93602.66;;;11.73;73.46
11415;BME280;5763;42.714;23.244;2023-04-26T00:49:18;93607.22;;;11.81;73.32
11415;BME280;5763;42.714;23.244;2023-04-26T00:51:46;93596.88;;;11.71;73.11
11415;BME280;5763;42.714;23.244;2023-04-26T00:54:15;93601.41;;;11.74;71.86
11415;BME280;5763;42.714;23.244;2023-04-26T00:56:42;93606.81;;;11.68;71.18
11415;BME280;5763;42.714;23.244;2023-04-26T00:59:08;93599.56;;;11.65;71.46
11415;BME280;5763;42.714;23.244;2023-04-26T01:01:35;93602.69;;;11.58;70.37
11415;BME280;5763;42.714;23.244;2023-04-26T01:04:02;93609.00;;;11.64;69.97
11415;BME280;5763;42.714;23.244;2023-04-26T01:06:32;93610.00;;;11.61;69.35
11415;BME280;5763;42.714;23.244;2023-04-26T01:09:02;93613.06;;;11.49;69.78
11415;BME280;5763;42.714;23.244;2023-04-26T01:11:30;93623.75;;;11.47;69.44
11415;BME280;5763;42.714;23.244;2023-04-26T01:13:58;93624.91;;;11.40;70.26
11415;BME280;5763;42.714;23.244;2023-04-26T01:16:25;93621.75;;;11.47;71.27
11415;BME280;5763;42.714;23.244;2023-04-26T01:18:53;93616.50;;;11.44;71.10
11415;BME280;5763;42.714;23.244;2023-04-26T01:21:22;93608.19;;;11.38;71.70
11415;BME280;5763;42.714;23.244;2023-04-26T01:23:51;93597.53;;;11.40;72.12
11415;BME280;5763;42.714;23.244;2023-04-26T01:26:18;93590.56;;;11.39;72.60
11415;BME280;5763;42.714;23.244;2023-04-26T01:28:45;93604.44;;;11.36;72.65
11415;BME280;5763;42.714;23.244;2023-04-26T01:31:13;93599.72;;;11.36;72.10
11415;BME280;5763;42.714;23.244;2023-04-26T01:33:40;93604.16;;;11.34;72.67
11415;BME280;5763;42.714;23.244;2023-04-26T01:36:07;93613.16;;;11.34;72.35
11415;BME280;5763;42.714;23.244;2023-04-26T01:38:35;93614.19;;;11.37;72.16
11415;BME280;5763;42.714;23.244;2023-04-26T01:41:03;93608.88;;;11.33;72.54
11415;BME280;5763;42.714;23.244;2023-04-26T01:43:30;93607.47;;;11.38;72.56
11415;BME280;5763;42.714;23.244;2023-04-26T01:45:57;93612.97;;;11.43;73.09
11415;BME280;5763;42.714;23.244;2023-04-26T01:48:24;93619.50;;;11.46;72.83
11415;BME280;5763;42.714;23.244;2023-04-26T01:50:50;93616.69;;;11.40;73.34
11415;BME280;5763;42.714;23.244;2023-04-26T01:53:17;93614.56;;;11.50;73.46
11415;BME280;5763;42.714;23.244;2023-04-26T01:55:44;93597.88;;;11.48;74.04
11415;BME280;5763;42.714;23.244;2023-04-26T01:58:12;93599.09;;;11.47;73.17
11415;BME280;5763;42.714;23.244;2023-04-26T02:00:38;93602.31;;;11.45;73.29
11415;BME280;5763;42.714;23.244;2023-04-26T02:03:05;93587.94;;;11.50;73.31
11415;BME280;5763;42.714;23.244;2023-04-26T02:05:32;93586.00;;;11.56;72.85
11415;BME280;5763;42.714;23.244;2023-04-26T02:07:59;93587.78;;;11.59;72.83
11415;BME280;5763;42.714;23.244;2023-04-26T02:10:26;93575.78;;;11.57;73.17
11415;BME280;5763;42.714;23.244;2023-04-26T02:12:54;93582.72;;;11.52;73.63
11415;BME280;5763;42.714;23.244;2023-04-26T02:15:22;93581.09;;;11.60;74.03
11415;BME280;5763;42.714;23.244;2023-04-26T02:17:49;93569.56;;;11.56;74.11
11415;BME280;5763;42.714;23.244;2023-04-26T02:20:18;93577.66;;;11.65;74.03
11415;BME280;5763;42.714;23.244;2023-04-26T02:22:45;93578.13;;;11.64;73.99
11415;BME280;5763;42.714;23.244;2023-04-26T02:25:12;93575.63;;;11.60;73.90
11415;BME280;5763;42.714;23.244;2023-04-26T02:27:40;93575.28;;;11.58;74.04
11415;BME280;5763;42.714;23.244;2023-04-26T02:30:07;93569.56;;;11.56;74.41
11415;BME280;5763;42.714;23.244;2023-04-26T02:32:36;93581.81;;;11.61;74.58
11415;BME280;5763;42.714;23.244;2023-04-26T02:35:03;93573.47;;;11.70;74.94
11415;BME280;5763;42.714;23.244;2023-04-26T02:37:31;93585.19;;;11.70;74.96
11415;BME280;5763;42.714;23.244;2023-04-26T02:39:58;93592.16;;;11.71;75.19
11415;BME280;5763;42.714;23.244;2023-04-26T02:42:25;93596.63;;;11.69;74.81
11415;BME280;5763;42.714;23.244;2023-04-26T02:44:51;93592.31;;;11.62;74.58
11415;BME280;5763;42.714;23.244;2023-04-26T02:47:18;93588.63;;;11.65;74.65
11415;BME280;5763;42.714;23.244;2023-04-26T02:49:46;93583.13;;;11.65;75.10
11415;BME280;5763;42.714;23.244;2023-04-26T02:52:13;93576.00;;;11.53;75.63
11415;BME280;5763;42.714;23.244;2023-04-26T02:54:40;93570.94;;;11.46;76.13
11415;BME280;5763;42.714;23.244;2023-04-26T02:57:07;93567.66;;;11.42;76.86
11415;BME280;5763;42.714;23.244;2023-04-26T02:59:33;93563.22;;;11.45;76.87
11415;BME280;5763;42.714;23.244;2023-04-26T03:02:00;93561.56;;;11.53;76.57
11415;BME280;5763;42.714;23.244;2023-04-26T03:04:27;93567.28;;;11.55;76.70
11415;BME280;5763;42.714;23.244;2023-04-26T03:06:55;93562.81;;;11.52;76.57
11415;BME280;5763;42.714;23.244;2023-04-26T03:09:22;93562.72;;;11.46;77.49
11415;BME280;5763;42.714;23.244;2023-04-26T03:11:49;93554.94;;;11.39;77.55
11415;BME280;5763;42.714;23.244;2023-04-26T03:14:15;93567.81;;;11.33;77.77
11415;BME280;5763;42.714;23.244;2023-04-26T03:16:43;93562.47;;;11.44;77.51
11415;BME280;5763;42.714;23.244;2023-04-26T03:19:10;93555.56;;;11.54;77.32
11415;BME280;5763;42.714;23.244;2023-04-26T03:21:36;93564.56;;;11.55;76.91
11415;BME280;5763;42.714;23.244;2023-04-26T03:24:05;93564.97;;;11.68;76.31
11415;BME280;5763;42.714;23.244;2023-04-26T03:26:32;93560.31;;;11.74;76.21
11415;BME280;5763;42.714;23.244;2023-04-26T03:28:59;93565.00;;;11.73;76.72
11415;BME280;5763;42.714;23.244;2023-04-26T03:31:26;93566.13;;;11.87;75.89
11415;BME280;5763;42.714;23.244;2023-04-26T03:33:52;93564.16;;;11.87;75.74
11415;BME280;5763;42.714;23.244;2023-04-26T03:36:19;93565.13;;;11.84;76.10
11415;BME280;5763;42.714;23.244;2023-04-26T03:38:46;93571.13;;;11.88;76.02
11415;BME280;5763;42.714;23.244;2023-04-26T03:41:14;93573.34;;;11.84;75.98
11415;BME280;5763;42.714;23.244;2023-04-26T03:43:41;93576.28;;;11.81;76.01
11415;BME280;5763;42.714;23.244;2023-04-26T03:46:07;93589.78;;;11.84;74.72
11415;BME280;5763;42.714;23.244;2023-04-26T03:48:34;93580.88;;;11.64;74.33
11415;BME280;5763;42.714;23.244;2023-04-26T03:51:01;93586.44;;;11.49;74.79
11415;BME280;5763;42.714;23.244;2023-04-26T03:53:28;93584.38;;;11.44;75.40
11415;BME280;5763;42.714;23.244;2023-04-26T03:55:55;93591.97;;;11.35;75.77
11415;BME280;5763;42.714;23.244;2023-04-26T03:58:23;93592.75;;;11.35;75.96
11415;BME280;5763;42.714;23.244;2023-04-26T04:00:51;93602.59;;;11.27;76.79
11415;BME280;5763;42.714;23.244;2023-04-26T04:03:17;93601.88;;;11.27;76.87
11415;BME280;5763;42.714;23.244;2023-04-26T04:05:45;93603.06;;;11.26;77.19
11415;BME280;5763;42.714;23.244;2023-04-26T04:08:12;93599.84;;;11.27;77.28
11415;BME280;5763;42.714;23.244;2023-04-26T04:10:40;93603.69;;;11.35;77.36
11415;BME280;5763;42.714;23.244;2023-04-26T04:13:07;93611.13;;;11.55;76.97
11415;BME280;5763;42.714;23.244;2023-04-26T04:15:35;93612.72;;;11.61;76.78
11415;BME280;5763;42.714;23.244;2023-04-26T04:18:02;93605.56;;;11.69;76.48
11415;BME280;5763;42.714;23.244;2023-04-26T04:20:29;93610.34;;;11.74;75.80
11415;BME280;5763;42.714;23.244;2023-04-26T04:22:55;93610.44;;;11.80;75.86
11415;BME280;5763;42.714;23.244;2023-04-26T04:25:23;93609.72;;;11.85;75.87
11415;BME280;5763;42.714;23.244;2023-04-26T04:27:50;93616.59;;;12.00;75.27
11415;BME280;5763;42.714;23.244;2023-04-26T04:30:17;93609.69;;;12.05;75.29
11415;BME280;5763;42.714;23.244;2023-04-26T04:32:46;93615.41;;;12.07;74.70
11415;BME280;5763;42.714;23.244;2023-04-26T04:35:13;93620.97;;;12.12;74.22
11415;BME280;5763;42.714;23.244;2023-04-26T04:37:40;93623.69;;;12.12;74.43
11415;BME280;5763;42.714;23.244;2023-04-26T04:40:09;93619.97;;;12.15;74.00
11415;BME280;5763;42.714;23.244;2023-04-26T04:42:37;93621.69;;;12.13;74.80
11415;BME280;5763;42.714;23.244;2023-04-26T04:45:05;93623.97;;;12.14;75.10
11415;BME280;5763;42.714;23.244;2023-04-26T04:47:32;93620.75;;;12.16;75.42
11415;BME280;5763;42.714;23.244;2023-04-26T04:50:04;93628.66;;;12.08;76.18
11415;BME280;5763;42.714;23.244;2023-04-26T04:52:31;93612.50;;;12.16;75.24
11415;BME280;5763;42.714;23.244;2023-04-26T04:54:58;93623.00;;;12.17;75.63
11415;BME280;5763;42.714;23.244;2023-04-26T04:57:25;93622.78;;;12.21;75.27
11415;BME280;5763;42.714;23.244;2023-04-26T04:59:52;93621.31;;;12.25;74.72
11415;BME280;5763;42.714;23.244;2023-04-26T05:02:19;93629.81;;;12.27;74.77
11415;BME280;5763;42.714;23.244;2023-04-26T05:04:46;93629.13;;;12.32;73.78
11415;BME280;5763;42.714;23.244;2023-04-26T05:07:14;93624.66;;;12.35;74.34
11415;BME280;5763;42.714;23.244;2023-04-26T05:09:42;93609.28;;;12.17;75.04
11415;BME280;5763;42.714;23.244;2023-04-26T05:12:10;93622.56;;;12.24;75.55
11415;BME280;5763;42.714;23.244;2023-04-26T05:14:36;93621.75;;;12.18;76.57
11415;BME280;5763;42.714;23.244;2023-04-26T05:17:05;93614.69;;;12.37;75.69
11415;BME280;5763;42.714;23.244;2023-04-26T05:19:31;93623.97;;;12.45;75.08
11415;BME280;5763;42.714;23.244;2023-04-26T05:21:58;93618.06;;;12.52;74.49
11415;BME280;5763;42.714;23.244;2023-04-26T05:24:28;93613.34;;;12.58;74.51
11415;BME280;5763;42.714;23.244;2023-04-26T05:26:57;93621.59;;;12.64;74.15
11415;BME280;5763;42.714;23.244;2023-04-26T05:29:24;93620.88;;;12.63;73.95
11415;BME280;5763;42.714;23.244;2023-04-26T05:31:51;93625.16;;;12.70;73.18
11415;BME280;5763;42.714;23.244;2023-04-26T05:34:17;93633.50;;;12.86;72.21
11415;BME280;5763;42.714;23.244;2023-04-26T05:36:44;93635.78;;;12.93;72.65
11415;BME280;5763;42.714;23.244;2023-04-26T05:39:11;93632.13;;;13.02;72.59
11415;BME280;5763;42.714;23.244;2023-04-26T05:41:39;93634.09;;;13.01;72.80
11415;BME280;5763;42.714;23.244;2023-04-26T05:44:06;93638.41;;;13.08;72.63
11415;BME280;5763;42.714;23.244;2023-04-26T05:46:33;93639.44;;;13.16;72.40
11415;BME280;5763;42.714;23.244;2023-04-26T05:48:59;93634.22;;;13.18;73.19
11415;BME280;5763;42.714;23.244;2023-04-26T05:51:26;93647.50;;;13.30;72.81
11415;BME280;5763;42.714;23.244;2023-04-26T05:53:53;93649.03;;;13.37;71.26
11415;BME280;5763;42.714;23.244;2023-04-26T05:56:20;93650.09;;;13.50;70.67
11415;BME280;5763;42.714;23.244;2023-04-26T05:58:49;93648.66;;;13.66;69.86
11415;BME280;5763;42.714;23.244;2023-04-26T06:01:17;93655.47;;;13.81;68.54
11415;BME280;5763;42.714;23.244;2023-04-26T06:03:44;93651.69;;;13.73;69.05
11415;BME280;5763;42.714;23.244;2023-04-26T06:06:11;93647.94;;;13.82;68.87
11415;BME280;5763;42.714;23.244;2023-04-26T06:08:38;93659.19;;;13.78;69.55
11415;BME280;5763;42.714;23.244;2023-04-26T06:11:05;93659.41;;;13.64;70.44
11415;BME280;5763;42.714;23.244;2023-04-26T06:13:32;93651.34;;;13.49;70.73
11415;BME280;5763;42.714;23.244;2023-04-26T06:16:00;93661.81;;;13.45;66.67
11415;BME280;5763;42.714;23.244;2023-04-26T06:18:26;93664.38;;;13.60;66.20
11415;BME280;5763;42.714;23.244;2023-04-26T06:20:53;93670.63;;;13.60;65.28
11415;BME280;5763;42.714;23.244;2023-04-26T06:23:20;93670.63;;;13.66;65.47
11415;BME280;5763;42.714;23.244;2023-04-26T06:25:47;93673.63;;;13.57;63.71
11415;BME280;5763;42.714;23.244;2023-04-26T06:28:13;93676.88;;;13.55;63.05
11415;BME280;5763;42.714;23.244;2023-04-26T06:30:41;93682.59;;;13.52;64.37
11415;BME280;5763;42.714;23.244;2023-04-26T06:33:09;93681.34;;;13.53;64.79
11415;BME280;5763;42.714;23.244;2023-04-26T06:35:38;93679.41;;;13.64;65.42
11415;BME280;5763;42.714;23.244;2023-04-26T06:38:05;93674.69;;;13.70;65.73
11415;BME280;5763;42.714;23.244;2023-04-26T06:40:32;93664.88;;;13.58;65.55
11415;BME280;5763;42.714;23.244;2023-04-26T06:43:01;93677.38;;;13.59;64.49
11415;BME280;5763;42.714;23.244;2023-04-26T06:45:28;93673.34;;;13.49;64.53
11415;BME280;5763;42.714;23.244;2023-04-26T06:47:55;93676.06;;;13.44;65.57
11415;BME280;5763;42.714;23.244;2023-04-26T06:50:26;93683.81;;;13.45;65.47
11415;BME280;5763;42.714;23.244;2023-04-26T06:52:53;93682.59;;;13.52;66.95
11415;BME280;5763;42.714;23.244;2023-04-26T06:55:20;93681.06;;;13.51;65.61
11415;BME280;5763;42.714;23.244;2023-04-26T06:57:48;93689.34;;;13.56;65.48
11415;BME280;5763;42.714;23.244;2023-04-26T07:00:15;93676.63;;;13.59;65.74
11415;BME280;5763;42.714;23.244;2023-04-26T07:02:43;93674.84;;;13.56;65.34
11415;BME280;5763;42.714;23.244;2023-04-26T07:05:10;93680.41;;;13.72;65.15
11415;BME280;5763;42.714;23.244;2023-04-26T07:07:38;93690.72;;;13.88;64.73
11415;BME280;5763;42.714;23.244;2023-04-26T07:10:06;93675.47;;;13.87;62.66
11415;BME280;5763;42.714;23.244;2023-04-26T07:12:33;93674.78;;;13.98;63.85
11415;BME280;5763;42.714;23.244;2023-04-26T07:14:59;93684.28;;;14.02;62.54
11415;BME280;5763;42.714;23.244;2023-04-26T07:17:26;93684.31;;;14.13;62.54
11415;BME280;5763;42.714;23.244;2023-04-26T07:19:53;93678.09;;;14.29;62.11
11415;BME280;5763;42.714;23.244;2023-04-26T07:22:20;93686.16;;;14.49;60.13
11415;BME280;5763;42.714;23.244;2023-04-26T07:24:48;93683.16;;;14.36;58.42
11415;BME280;5763;42.714;23.244;2023-04-26T07:27:15;93690.13;;;14.43;59.12
11415;BME280;5763;42.714;23.244;2023-04-26T07:29:42;93687.63;;;14.28;57.47
11415;BME280;5763;42.714;23.244;2023-04-26T07:32:08;93687.06;;;14.19;57.92
11415;BME280;5763;42.714;23.244;2023-04-26T07:34:35;93694.81;;;14.15;57.18
11415;BME280;5763;42.714;23.244;2023-04-26T07:37:02;93704.28;;;14.03;56.00
11415;BME280;5763;42.714;23.244;2023-04-26T07:39:29;93712.25;;;13.90;55.86
11415;BME280;5763;42.714;23.244;2023-04-26T07:41:57;93704.41;;;13.66;56.05
11415;BME280;5763;42.714;23.244;2023-04-26T07:44:23;93705.38;;;13.63;57.14
11415;BME280;5763;42.714;23.244;2023-04-26T07:46:50;93710.41;;;13.70;56.22
11415;BME280;5763;42.714;23.244;2023-04-26T07:49:17;93709.84;;;13.55;56.20
11415;BME280;5763;42.714;23.244;2023-04-26T07:51:44;93721.00;;;13.41;56.03
11415;BME280;5763;42.714;23.244;2023-04-26T07:54:11;93724.16;;;13.28;56.09
11415;BME280;5763;42.714;23.244;2023-04-26T07:56:37;93710.75;;;13.41;57.18
11415;BME280;5763;42.714;23.244;2023-04-26T07:59:05;93705.31;;;13.52;57.10
11415;BME280;5763;42.714;23.244;2023-04-26T08:01:32;93712.31;;;13.53;56.55
11415;BME280;5763;42.714;23.244;2023-04-26T08:03:59;93703.28;;;13.47;56.79
11415;BME280;5763;42.714;23.244;2023-04-26T08:06:26;93703.91;;;13.68;56.82
11415;BME280;5763;42.714;23.244;2023-04-26T08:08:53;93713.22;;;13.81;56.46
11415;BME280;5763;42.714;23.244;2023-04-26T08:11:20;93710.47;;;13.81;55.16
11415;BME280;5763;42.714;23.244;2023-04-26T08:13:47;93706.22;;;13.80;55.66
11415;BME280;5763;42.714;23.244;2023-04-26T08:16:15;93713.19;;;13.76;54.89
11415;BME280;5763;42.714;23.244;2023-04-26T08:18:42;93703.72;;;13.82;56.13
11415;BME280;5763;42.714;23.244;2023-04-26T08:21:08;93704.06;;;14.06;57.93
11415;BME280;5763;42.714;23.244;2023-04-26T08:23:35;93709.38;;;14.21;56.79
11415;BME280;5763;42.714;23.244;2023-04-26T08:26:02;93714.59;;;14.19;52.97
11415;BME280;5763;42.714;23.244;2023-04-26T08:28:29;93704.88;;;14.23;52.79
11415;BME280;5763;42.714;23.244;2023-04-26T08:30:56;93710.16;;;14.38;53.34
11415;BME280;5763;42.714;23.244;2023-04-26T08:33:24;93714.91;;;14.26;52.53
11415;BME280;5763;42.714;23.244;2023-04-26T08:35:51;93705.91;;;14.42;52.33
11415;BME280;5763;42.714;23.244;2023-04-26T08:38:17;93708.41;;;14.51;52.20
11415;BME280;5763;42.714;23.244;2023-04-26T08:40:46;93705.44;;;14.77;52.84
11415;BME280;5763;42.714;23.244;2023-04-26T08:43:14;93703.19;;;14.97;53.03
11415;BME280;5763;42.714;23.244;2023-04-26T08:45:44;93717.72;;;15.14;51.94
11415;BME280;5763;42.714;23.244;2023-04-26T08:48:11;93711.44;;;15.19;52.40
11415;BME280;5763;42.714;23.244;2023-04-26T08:50:42;93709.16;;;15.29;51.41
11415;BME280;5763;42.714;23.244;2023-04-26T08:53:11;93706.66;;;15.25;51.03
11415;BME280;5763;42.714;23.244;2023-04-26T08:55:40;93717.72;;;15.14;50.43
11415;BME280;5763;42.714;23.244;2023-04-26T08:58:07;93700.69;;;15.10;49.61
11415;BME280;5763;42.714;23.244;2023-04-26T09:00:34;93710.19;;;15.20;50.23
11415;BME280;5763;42.714;23.244;2023-04-26T09:03:01;93702.44;;;15.08;49.54
11415;BME280;5763;42.714;23.244;2023-04-26T09:05:28;93704.94;;;15.06;49.90
11415;BME280;5763;42.714;23.244;2023-04-26T09:08:01;93705.16;;;15.19;50.74
11415;BME280;5763;42.714;23.244;2023-04-26T09:10:30;93711.22;;;15.01;49.80
11415;BME280;5763;42.714;23.244;2023-04-26T09:12:57;93716.44;;;15.10;49.88
11415;BME280;5763;42.714;23.244;2023-04-26T09:15:25;93713.94;;;15.17;50.42
11415;BME280;5763;42.714;23.244;2023-04-26T09:17:52;93717.97;;;15.22;50.31
11415;BME280;5763;42.714;23.244;2023-04-26T09:20:21;93720.19;;;15.40;49.34
11415;BME280;5763;42.714;23.244;2023-04-26T09:22:49;93722.47;;;15.47;49.71
11415;BME280;5763;42.714;23.244;2023-04-26T09:25:19;93714.69;;;15.45;49.39
11415;BME280;5763;42.714;23.244;2023-04-26T09:27:52;93714.16;;;15.52;48.40
11415;BME280;5763;42.714;23.244;2023-04-26T09:30:19;93720.38;;;15.80;48.78
11415;BME280;5763;42.714;23.244;2023-04-26T09:32:49;93712.59;;;15.73;47.36
11415;BME280;5763;42.714;23.244;2023-04-26T09:35:28;93721.31;;;15.94;47.89
11415;BME280;5763;42.714;23.244;2023-04-26T09:37:56;93711.28;;;15.96;47.10
11415;BME280;5763;42.714;23.244;2023-04-26T09:40:27;93713.53;;;15.98;45.19
11415;BME280;5763;42.714;23.244;2023-04-26T09:43:00;93708.63;;;16.26;45.31
11415;BME280;5763;42.714;23.244;2023-04-26T09:45:28;93703.56;;;16.41;45.23
11415;BME280;5763;42.714;23.244;2023-04-26T09:48:11;93700.91;;;16.59;45.39
11415;BME280;5763;42.714;23.244;2023-04-26T09:50:37;93696.44;;;16.57;44.09
11415;BME280;5763;42.714;23.244;2023-04-26T09:53:06;93695.19;;;16.87;45.11
11415;BME280;5763;42.714;23.244;2023-04-26T09:55:34;93690.16;;;16.91;43.79
11415;BME280;5763;42.714;23.244;2023-04-26T09:58:07;93690.66;;;16.89;43.81
11415;BME280;5763;42.714;23.244;2023-04-26T10:00:36;93694.84;;;16.66;42.21
11415;BME280;5763;42.714;23.244;2023-04-26T10:03:04;93695.44;;;16.54;42.78
11415;BME280;5763;42.714;23.244;2023-04-26T10:05:33;93695.25;;;16.35;41.07
11415;BME280;5763;42.714;23.244;2023-04-26T10:08:00;93691.84;;;16.18;40.45
11415;BME280;5763;42.714;23.244;2023-04-26T10:10:28;93702.16;;;16.18;42.76
11415;BME280;5763;42.714;23.244;2023-04-26T10:12:57;93692.06;;;16.26;42.76
11415;BME280;5763;42.714;23.244;2023-04-26T10:15:23;93701.56;;;16.30;42.20
11415;BME280;5763;42.714;23.244;2023-04-26T10:17:50;93695.88;;;16.17;41.06
11415;BME280;5763;42.714;23.244;2023-04-26T10:20:19;93687.50;;;16.39;41.21
11415;BME280;5763;42.714;23.244;2023-04-26T10:22:50;93694.84;;;16.66;42.79
11415;BME280;5763;42.714;23.244;2023-04-26T10:25:19;93688.56;;;17.01;40.38
11415;BME280;5763;42.714;23.244;2023-04-26T10:27:46;93685.75;;;17.36;39.90
11415;BME280;5763;42.714;23.244;2023-04-26T10:30:15;93677.75;;;17.57;42.28
11415;BME280;5763;42.714;23.244;2023-04-26T10:36:14;93684.94;;;17.89;37.92
11415;BME280;5763;42.714;23.244;2023-04-26T10:41:46;93697.31;;;17.83;37.33
11415;BME280;5763;42.714;23.244;2023-04-26T10:44:37;93691.63;;;17.51;37.43
11415;BME280;5763;42.714;23.244;2023-04-26T10:47:19;93686.75;;;17.39;37.70
11415;BME280;5763;42.714;23.244;2023-04-26T10:49:46;93687.03;;;17.29;39.28
11415;BME280;5763;42.714;23.244;2023-04-26T10:52:14;93676.47;;;17.33;37.20
11415;BME280;5763;42.714;23.244;2023-04-26T10:54:49;93681.66;;;17.42;37.65
11415;BME280;5763;42.714;23.244;2023-04-26T10:57:17;93676.97;;;17.56;37.98
11415;BME280;5763;42.714;23.244;2023-04-26T11:00:15;93671.34;;;17.43;37.91
11415;BME280;5763;42.714;23.244;2023-04-26T11:03:04;93664.94;;;17.96;38.56
11415;BME280;5763;42.714;23.244;2023-04-26T11:08:20;93655.00;;;18.24;35.72
11415;BME280;5763;42.714;23.244;2023-04-26T11:10:50;93667.38;;;18.61;35.75
11415;BME280;5763;42.714;23.244;2023-04-26T11:13:18;93678.25;;;18.59;35.81
11415;BME280;5763;42.714;23.244;2023-04-26T11:15:45;93679.91;;;18.49;34.96
11415;BME280;5763;42.714;23.244;2023-04-26T11:18:17;93669.16;;;18.21;35.93
11415;BME280;5763;42.714;23.244;2023-04-26T11:20:44;93671.88;;;18.27;36.90
11415;BME280;5763;42.714;23.244;2023-04-26T11:23:11;93673.28;;;18.14;36.28
11415;BME280;5763;42.714;23.244;2023-04-26T11:25:38;93682.41;;;18.09;35.45
11415;BME280;5763;42.714;23.244;2023-04-26T11:28:05;93674.22;;;17.80;34.42
11415;BME280;5763;42.714;23.244;2023-04-26T11:30:32;93675.53;;;17.73;34.24
11415;BME280;5763;42.714;23.244;2023-04-26T11:32:59;93678.19;;;17.85;35.18
11415;BME280;5763;42.714;23.244;2023-04-26T11:35:28;93681.06;;;17.73;34.87
11415;BME280;5763;42.714;23.244;2023-04-26T11:37:57;93678.31;;;17.73;36.70
11415;BME280;5763;42.714;23.244;2023-04-26T11:40:27;93687.56;;;18.18;37.42
11415;BME280;5763;42.714;23.244;2023-04-26T11:42:54;93682.59;;;18.36;33.98
11415;BME280;5763;42.714;23.244;2023-04-26T11:45:24;93675.69;;;18.23;33.21
11415;BME280;5763;42.714;23.244;2023-04-26T11:47:52;93672.44;;;18.19;34.29
11415;BME280;5763;42.714;23.244;2023-04-26T11:50:20;93671.78;;;18.13;35.62
11415;BME280;5763;42.714;23.244;2023-04-26T11:52:53;93677.47;;;18.02;34.32
11415;BME280;5763;42.714;23.244;2023-04-26T11:55:23;93669.91;;;18.03;34.90
11415;BME280;5763;42.714;23.244;2023-04-26T11:57:51;93673.78;;;17.94;35.16
11415;BME280;5763;42.714;23.244;2023-04-26T12:00:19;93668.84;;;17.88;35.49
11415;BME280;5763;42.714;23.244;2023-04-26T12:02:47;93667.69;;;17.77;36.78
11415;BME280;5763;42.714;23.244;2023-04-26T12:05:21;93673.47;;;17.56;35.06
11415;BME280;5763;42.714;23.244;2023-04-26T12:07:54;93676.00;;;17.77;36.38
11415;BME280;5763;42.714;23.244;2023-04-26T12:10:24;93680.38;;;17.92;37.13
11415;BME280;5763;42.714;23.244;2023-04-26T12:12:53;93672.34;;;17.70;36.08
11415;BME280;5763;42.714;23.244;2023-04-26T12:15:25;93676.97;;;17.56;36.06
11415;BME280;5763;42.714;23.244;2023-04-26T12:17:55;93652.34;;;17.58;37.42
11415;BME280;5763;42.714;23.244;2023-04-26T12:20:27;93668.13;;;17.39;35.24
11415;BME280;5763;42.714;23.244;2023-04-26T12:23:02;93674.25;;;17.26;35.36
11415;BME280;5763;42.714;23.244;2023-04-26T12:25:30;93667.81;;;17.67;35.36
11415;BME280;5763;42.714;23.244;2023-04-26T12:27:57;93650.97;;;17.88;34.84
11415;BME280;5763;42.714;23.244;2023-04-26T12:30:25;93672.28;;;17.93;35.63
11415;BME280;5763;42.714;23.244;2023-04-26T12:32:52;93659.00;;;18.11;35.44
11415;BME280;5763;42.714;23.244;2023-04-26T12:35:20;93679.22;;;18.24;35.64
11415;BME280;5763;42.714;23.244;2023-04-26T12:37:48;93674.00;;;18.39;35.18
11415;BME280;5763;42.714;23.244;2023-04-26T12:40:19;93674.28;;;18.36;36.02
11415;BME280;5763;42.714;23.244;2023-04-26T12:42:47;93659.72;;;18.29;37.32
11415;BME280;5763;42.714;23.244;2023-04-26T12:45:17;93657.66;;;18.36;34.88
11415;BME280;5763;42.714;23.244;2023-04-26T12:47:46;93657.22;;;18.50;34.75
11415;BME280;5763;42.714;23.244;2023-04-26T12:50:13;93663.78;;;18.28;33.22
11415;BME280;5763;42.714;23.244;2023-04-26T12:52:42;93634.44;;;17.83;32.85
11415;BME280;5763;42.714;23.244;2023-04-26T12:55:10;93660.97;;;17.73;34.37
11415;BME280;5763;42.714;23.244;2023-04-26T12:57:39;93672.09;;;17.67;36.58
11415;BME280;5763;42.714;23.244;2023-04-26T13:00:09;93654.31;;;17.82;36.12
11415;BME280;5763;42.714;23.244;2023-04-26T13:02:36;93668.84;;;18.06;37.05
11415;BME280;5763;42.714;23.244;2023-04-26T13:05:04;93666.03;;;18.30;34.99
11415;BME280;5763;42.714;23.244;2023-04-26T13:07:31;93671.66;;;18.62;36.04
11415;BME280;5763;42.714;23.244;2023-04-26T13:09:58;93652.97;;;18.81;36.69
11415;BME280;5763;42.714;23.244;2023-04-26T13:12:25;93669.91;;;18.77;34.58